createdAt,value
2023-01-12T00:02:10.625Z,9.40
2023-01-12T00:04:38.500Z,9.40
2023-01-12T00:07:10.495Z,9.40
2023-01-12T00:09:38.657Z,9.40
2023-01-12T00:12:08.713Z,9.40
2023-01-12T00:14:37.655Z,9.40
2023-01-12T00:17:06.618Z,9.40
2023-01-12T00:19:34.458Z,9.40
2023-01-12T00:22:06.039Z,9.40
2023-01-12T00:24:39.025Z,9.40
2023-01-12T00:27:11.357Z,9.40
2023-01-12T00:30:05.811Z,9.40
2023-01-12T00:32:33.420Z,9.30
2023-01-12T00:35:00.813Z,9.40
2023-01-12T00:40:31.217Z,9.30
2023-01-12T00:43:19.548Z,9.30
2023-01-12T00:45:51.351Z,9.30
2023-01-12T00:48:19.004Z,9.30
2023-01-12T00:50:47.600Z,9.30
2023-01-12T00:53:47.409Z,9.30
2023-01-12T00:56:15.156Z,9.30
2023-01-12T00:58:52.894Z,9.30
2023-01-12T01:17:39.257Z,9.40
2023-01-12T01:20:06.962Z,9.40
2023-01-12T01:28:57.560Z,9.30
2023-01-12T01:31:39.652Z,9.40
2023-01-12T01:43:47.594Z,9.40
2023-01-12T01:55:52.874Z,9.40
2023-01-12T02:14:20.996Z,9.40
2023-01-12T02:20:01.275Z,9.40
2023-01-12T02:26:04.693Z,9.50
2023-01-12T02:37:59.084Z,9.40
2023-01-12T02:46:33.541Z,9.40
2023-01-12T02:52:25.589Z,9.50
2023-01-12T02:54:54.657Z,9.50
2023-01-12T02:57:24.848Z,9.50
2023-01-12T02:59:53.440Z,9.50
2023-01-12T03:02:23.236Z,9.50
2023-01-12T03:04:50.423Z,9.50
2023-01-12T03:07:49.028Z,9.60
2023-01-12T03:10:33.676Z,9.60
2023-01-12T03:13:09.832Z,9.60
2023-01-12T03:15:41.872Z,9.70
2023-01-12T03:18:28.816Z,9.70
2023-01-12T03:21:13.708Z,9.70
2023-01-12T03:23:53.992Z,9.70
2023-01-12T03:26:27.937Z,9.80
2023-01-12T03:28:59.380Z,9.80
2023-01-12T03:31:27.290Z,9.80
2023-01-12T03:33:55.124Z,9.80
2023-01-12T03:36:44.879Z,9.90
2023-01-12T03:39:43.895Z,9.90
2023-01-12T03:42:14.121Z,9.90
2023-01-12T03:44:45.286Z,9.90
2023-01-12T03:47:27.198Z,9.90
2023-01-12T03:50:07.238Z,9.90
2023-01-12T03:52:38.549Z,9.90
2023-01-12T03:55:17.570Z,10.00
2023-01-12T03:57:46.690Z,10.00
2023-01-12T04:03:12.318Z,10.00
2023-01-12T04:08:48.790Z,9.90
2023-01-12T04:11:42.420Z,9.90
2023-01-12T04:14:27.891Z,9.90
2023-01-12T04:17:25.647Z,9.90
2023-01-12T04:19:53.125Z,9.90
2023-01-12T04:25:20.341Z,9.90
2023-01-12T04:34:23.974Z,9.80
2023-01-12T04:39:59.193Z,9.80
2023-01-12T04:54:14.352Z,9.80
2023-01-12T05:13:02.675Z,9.80
2023-01-12T05:15:33.209Z,9.80
2023-01-12T05:18:00.620Z,9.80
2023-01-12T05:29:46.248Z,9.90
2023-01-12T05:38:29.775Z,9.90
2023-01-12T05:54:00.490Z,10.00
2023-01-12T06:30:59.376Z,10.30
2023-01-12T06:33:27.810Z,10.30
2023-01-12T06:39:11.944Z,10.30
2023-01-12T07:25:59.103Z,10.30
2023-01-12T07:28:26.551Z,10.30
2023-01-12T07:30:58.871Z,10.30
2023-01-12T07:36:42.514Z,10.30
2023-01-12T07:42:23.818Z,10.30
2023-01-12T07:44:52.173Z,10.30
2023-01-12T07:47:19.816Z,10.30
2023-01-12T07:49:47.191Z,10.30
2023-01-12T07:52:17.104Z,10.30
2023-01-12T07:54:44.381Z,10.30
2023-01-12T07:57:12.509Z,10.30
2023-01-12T07:59:39.995Z,10.30
2023-01-12T08:02:11.020Z,10.30
2023-01-12T08:05:05.484Z,10.30
2023-01-12T08:07:33.449Z,10.30
2023-01-12T08:12:53.294Z,10.40
2023-01-12T08:21:58.053Z,10.40
2023-01-12T08:24:34.092Z,10.40
2023-01-12T08:27:04.969Z,10.40
2023-01-12T08:29:44.762Z,10.40
2023-01-12T08:32:14.101Z,10.50
2023-01-12T08:34:43.927Z,10.50
2023-01-12T08:37:14.399Z,10.50
2023-01-12T08:39:43.205Z,10.50
2023-01-12T08:42:10.542Z,10.50
2023-01-12T08:44:37.921Z,10.50
2023-01-12T08:47:23.476Z,10.60
2023-01-12T08:49:50.714Z,10.60
2023-01-12T08:52:18.156Z,10.60
2023-01-12T08:54:46.973Z,10.60
2023-01-12T08:57:17.266Z,10.70
2023-01-12T08:59:44.482Z,10.70
2023-01-12T09:02:13.083Z,10.70
2023-01-12T09:04:40.861Z,10.70
2023-01-12T09:07:09.595Z,10.70
2023-01-12T09:09:37.415Z,10.70
2023-01-12T09:12:04.990Z,10.70
2023-01-12T09:14:38.558Z,10.70
2023-01-12T09:17:06.990Z,10.70
2023-01-12T09:19:34.390Z,10.70
2023-01-12T09:22:02.231Z,10.80
2023-01-12T09:24:29.343Z,10.80
2023-01-12T09:26:56.668Z,10.80
2023-01-12T09:29:29.923Z,10.70
2023-01-12T09:32:00.793Z,10.70
2023-01-12T09:34:27.971Z,10.70
2023-01-12T09:36:56.795Z,10.70
2023-01-12T09:39:27.825Z,10.70
2023-01-12T09:42:14.871Z,10.70
2023-01-12T09:45:02.810Z,10.70
2023-01-12T09:47:48.297Z,10.70
2023-01-12T09:50:15.763Z,10.70
2023-01-12T09:52:54.847Z,10.70
2023-01-12T09:55:31.035Z,10.60
2023-01-12T09:58:27.714Z,10.70
2023-01-12T10:00:57.268Z,10.70
2023-01-12T10:03:38.495Z,10.60
2023-01-12T10:06:07.037Z,10.60
2023-01-12T10:08:55.122Z,10.60
2023-01-12T10:11:25.211Z,10.60
2023-01-12T10:14:19.981Z,10.60
2023-01-12T10:16:49.855Z,10.60
2023-01-12T10:19:40.032Z,10.60
2023-01-12T10:22:56.861Z,10.60
2023-01-12T10:25:27.542Z,10.60
2023-01-12T10:27:57.167Z,10.60
2023-01-12T10:30:36.996Z,10.60
2023-01-12T10:33:26.766Z,10.60
2023-01-12T10:36:05.619Z,10.60
2023-01-12T10:38:37.605Z,10.60
2023-01-12T10:41:10.914Z,10.70
2023-01-12T10:43:40.194Z,10.70
2023-01-12T10:46:14.834Z,10.70
2023-01-12T10:48:54.261Z,10.70
2023-01-12T10:51:34.710Z,10.70
2023-01-12T10:54:17.864Z,10.70
2023-01-12T10:57:08.783Z,10.70
2023-01-12T10:59:39.260Z,10.80
2023-01-12T11:02:09.488Z,10.80
2023-01-12T11:04:49.049Z,10.80
2023-01-12T11:07:40.255Z,10.80
2023-01-12T11:10:35.823Z,10.80
2023-01-12T11:13:05.965Z,10.80
2023-01-12T11:15:39.087Z,10.80
2023-01-12T11:18:27.528Z,10.80
2023-01-12T11:21:06.525Z,10.80
2023-01-12T11:23:40.696Z,10.90
2023-01-12T11:26:19.132Z,10.90
2023-01-12T11:28:51.001Z,10.90
2023-01-12T11:31:40.005Z,10.80
2023-01-12T11:34:19.344Z,10.90
2023-01-12T11:36:52.126Z,10.90
2023-01-12T11:39:27.877Z,10.80
2023-01-12T11:42:17.736Z,10.90
2023-01-12T11:45:03.530Z,10.90
2023-01-12T11:47:41.816Z,10.90
2023-01-12T11:50:24.906Z,10.90
2023-01-12T11:52:53.016Z,10.90
2023-01-12T11:56:03.575Z,10.90
2023-01-12T11:58:51.773Z,10.90
2023-01-12T12:01:26.920Z,10.90
2023-01-12T12:04:04.361Z,10.90
2023-01-12T12:07:02.367Z,10.90
2023-01-12T12:09:47.832Z,10.90
2023-01-12T12:12:43.845Z,10.90
2023-01-12T12:15:33.252Z,10.90
2023-01-12T12:18:27.732Z,10.90
2023-01-12T12:21:04.367Z,10.90
2023-01-12T12:23:49.370Z,10.90
2023-01-12T12:26:36.200Z,10.90
2023-01-12T12:29:15.234Z,10.90
2023-01-12T12:32:06.550Z,10.90
2023-01-12T12:34:36.273Z,10.90
2023-01-12T12:37:38.943Z,10.90
2023-01-12T12:40:05.992Z,10.90
2023-01-12T12:43:19.751Z,10.90
2023-01-12T12:46:05.586Z,10.90
2023-01-12T12:48:44.009Z,10.90
2023-01-12T12:51:13.120Z,10.90
2023-01-12T12:53:43.621Z,10.90
2023-01-12T12:56:14.420Z,10.90
2023-01-12T12:58:41.499Z,10.90
2023-01-12T13:01:21.114Z,10.90
2023-01-12T13:03:51.271Z,10.90
2023-01-12T13:06:31.520Z,10.90
2023-01-12T13:09:05.708Z,10.90
2023-01-12T13:11:53.804Z,10.90
2023-01-12T13:14:32.809Z,10.90
2023-01-12T13:17:18.653Z,10.90
2023-01-12T13:20:08.549Z,10.90
2023-01-12T13:22:48.859Z,10.90
2023-01-12T13:25:23.852Z,10.90
2023-01-12T13:28:01.548Z,10.90
2023-01-12T13:30:31.467Z,11.00
2023-01-12T13:33:14.723Z,11.00
2023-01-12T13:35:44.679Z,11.00
2023-01-12T13:38:50.586Z,11.00
2023-01-12T13:41:44.314Z,11.00
2023-01-12T13:44:21.060Z,11.00
2023-01-12T13:46:52.233Z,11.00
2023-01-12T13:49:34.851Z,11.00
2023-01-12T13:52:09.885Z,11.00
2023-01-12T13:54:49.351Z,11.00
2023-01-12T13:57:22.685Z,11.00
2023-01-12T14:00:14.243Z,11.00
2023-01-12T14:02:42.220Z,11.00
2023-01-12T14:05:21.525Z,11.00
2023-01-12T14:07:55.880Z,11.00
2023-01-12T14:10:43.689Z,11.00
2023-01-12T14:13:37.497Z,11.00
2023-01-12T14:16:34.224Z,11.10
2023-01-12T14:19:01.946Z,11.10
2023-01-12T14:21:34.870Z,11.10
2023-01-12T14:24:22.390Z,11.10
2023-01-12T14:26:49.544Z,11.10
2023-01-12T14:29:16.671Z,11.10
2023-01-12T14:31:48.694Z,11.10
2023-01-12T14:34:28.354Z,11.10
2023-01-12T14:36:56.404Z,11.10
2023-01-12T14:39:26.740Z,11.10
2023-01-12T14:42:14.928Z,11.10
2023-01-12T14:45:14.326Z,11.10
2023-01-12T14:47:42.206Z,11.10
2023-01-12T14:50:19.773Z,11.10
2023-01-12T14:52:48.390Z,11.10
2023-01-12T14:55:27.052Z,11.10
2023-01-12T14:58:00.841Z,11.10
2023-01-12T15:00:31.464Z,11.10
2023-01-12T15:03:01.055Z,11.10
2023-01-12T15:05:30.193Z,11.10
2023-01-12T15:08:04.643Z,11.10
2023-01-12T15:10:35.081Z,11.10
2023-01-12T15:13:24.178Z,11.10
2023-01-12T15:16:10.811Z,11.10
2023-01-12T15:18:56.850Z,11.10
2023-01-12T15:21:46.365Z,11.10
2023-01-12T15:24:40.812Z,11.10
2023-01-12T15:27:09.206Z,11.20
2023-01-12T15:29:37.568Z,11.20
2023-01-12T15:32:12.011Z,11.20
2023-01-12T15:34:39.120Z,11.20
2023-01-12T15:37:06.205Z,11.20
2023-01-12T15:39:33.303Z,11.20
2023-01-12T15:42:18.331Z,11.10
2023-01-12T15:44:46.629Z,11.20
2023-01-12T15:47:18.439Z,11.20
2023-01-12T15:49:48.802Z,11.10
2023-01-12T15:52:22.080Z,11.10
2023-01-12T15:54:49.410Z,11.10
2023-01-12T15:57:17.692Z,11.10
2023-01-12T15:59:45.063Z,11.10
2023-01-12T16:02:27.623Z,11.10
2023-01-12T16:04:54.957Z,11.10
2023-01-12T16:07:22.098Z,11.10
2023-01-12T16:09:50.812Z,11.10
2023-01-12T16:12:18.282Z,11.10
2023-01-12T16:14:45.538Z,11.10
2023-01-12T16:17:12.537Z,11.10
2023-01-12T16:19:42.550Z,11.10
2023-01-12T16:22:30.680Z,11.10
2023-01-12T16:24:57.741Z,11.10
2023-01-12T16:27:26.293Z,11.00
2023-01-12T16:29:53.726Z,11.00
2023-01-12T16:32:25.288Z,11.00
2023-01-12T16:34:52.767Z,11.00
2023-01-12T16:37:23.142Z,11.00
2023-01-12T16:39:50.268Z,11.00
2023-01-12T16:42:17.387Z,11.00
2023-01-12T16:44:44.909Z,10.90
2023-01-12T16:47:14.052Z,10.90
2023-01-12T16:49:41.806Z,10.90
2023-01-12T16:52:11.593Z,10.90
2023-01-12T16:54:42.576Z,10.90
2023-01-12T16:57:11.781Z,10.90
2023-01-12T16:59:39.425Z,10.90
2023-01-12T17:02:08.438Z,10.90
2023-01-12T17:04:37.801Z,10.90
2023-01-12T17:07:05.963Z,10.90
2023-01-12T17:09:37.768Z,10.90
2023-01-12T17:12:05.521Z,10.80
2023-01-12T17:14:34.761Z,10.90
2023-01-12T17:17:05.997Z,10.80
2023-01-12T17:19:35.435Z,10.90
2023-01-12T17:22:03.330Z,10.80
2023-01-12T17:24:32.045Z,10.90
2023-01-12T17:26:59.401Z,10.90
2023-01-12T17:29:27.793Z,10.90
2023-01-12T17:32:03.432Z,10.90
2023-01-12T17:34:33.099Z,10.90
2023-01-12T17:37:07.736Z,10.90
2023-01-12T17:39:43.032Z,10.90
2023-01-12T17:42:33.757Z,10.90
2023-01-12T17:45:01.480Z,10.90
2023-01-12T17:47:28.486Z,10.90
2023-01-12T17:49:55.705Z,10.90
2023-01-12T17:52:22.794Z,10.90
2023-01-12T17:54:49.871Z,10.90
2023-01-12T17:57:16.955Z,10.90
2023-01-12T17:59:44.733Z,10.90
2023-01-12T18:02:14.477Z,10.90
2023-01-12T18:04:41.686Z,10.90
2023-01-12T18:07:08.778Z,10.90
2023-01-12T18:09:37.039Z,10.90
2023-01-12T18:12:05.304Z,10.90
2023-01-12T18:14:32.482Z,10.90
2023-01-12T18:16:59.505Z,10.90
2023-01-12T18:19:26.589Z,10.90
2023-01-12T18:21:53.555Z,10.90
2023-01-12T18:24:20.566Z,10.90
2023-01-12T18:26:48.235Z,10.90
2023-01-12T18:29:15.175Z,10.90
2023-01-12T18:31:42.655Z,10.90
2023-01-12T18:34:11.002Z,10.90
2023-01-12T18:36:40.203Z,10.90
2023-01-12T18:39:11.172Z,10.90
2023-01-12T18:41:56.602Z,10.90
2023-01-12T18:44:24.836Z,10.90
2023-01-12T18:47:10.644Z,10.90
2023-01-12T18:49:39.712Z,10.90
2023-01-12T18:52:28.701Z,10.90
2023-01-12T18:54:55.910Z,10.90
2023-01-12T18:57:25.544Z,10.90
2023-01-12T19:00:10.169Z,10.90
2023-01-12T19:02:39.961Z,10.90
2023-01-12T19:05:22.386Z,10.90
2023-01-12T19:07:58.307Z,10.90
2023-01-12T19:10:27.025Z,10.90
2023-01-12T19:13:14.078Z,10.90
2023-01-12T19:16:00.299Z,10.90
2023-01-12T19:18:28.123Z,10.90
2023-01-12T19:21:15.072Z,10.90
2023-01-12T19:24:00.699Z,10.90
2023-01-12T19:26:46.139Z,10.90
2023-01-12T19:29:13.148Z,10.90
2023-01-12T19:31:40.182Z,10.90
2023-01-12T19:34:07.242Z,10.90
2023-01-12T19:36:34.176Z,10.90
2023-01-12T19:39:05.538Z,10.90
2023-01-12T19:41:52.154Z,10.90
2023-01-12T19:44:19.194Z,10.90
2023-01-12T19:46:46.174Z,10.90
2023-01-12T19:49:13.429Z,10.90
2023-01-12T19:51:40.446Z,10.90
2023-01-12T19:54:07.439Z,10.90
2023-01-12T19:56:34.415Z,10.90
2023-01-12T19:59:01.404Z,10.90
2023-01-12T20:01:29.314Z,10.90
2023-01-12T20:03:56.469Z,10.90
2023-01-12T20:06:24.869Z,10.90
2023-01-12T20:08:51.869Z,10.90
2023-01-12T20:11:18.853Z,10.90
2023-01-12T20:13:46.023Z,10.90
2023-01-12T20:16:13.172Z,10.90
2023-01-12T20:18:43.435Z,10.90
2023-01-12T20:21:11.863Z,10.90
2023-01-12T20:23:38.845Z,10.90
2023-01-12T20:26:08.023Z,10.90
2023-01-12T20:28:35.548Z,10.90
2023-01-12T20:31:09.443Z,10.90
2023-01-12T20:33:36.375Z,10.90
2023-01-12T20:36:03.564Z,10.90
2023-01-12T20:38:30.772Z,10.80
2023-01-12T20:40:58.125Z,10.80
2023-01-12T20:43:25.107Z,10.90
2023-01-12T20:45:52.638Z,10.90
2023-01-12T20:48:19.664Z,10.90
2023-01-12T20:50:47.012Z,10.80
2023-01-12T20:53:15.127Z,10.70
2023-01-12T20:55:51.629Z,10.70
2023-01-12T20:58:19.111Z,10.60
2023-01-12T21:00:46.596Z,10.50
2023-01-12T21:03:14.651Z,10.40
2023-01-12T21:05:43.378Z,10.40
2023-01-12T21:08:10.802Z,10.40
2023-01-12T21:10:39.256Z,10.40
2023-01-12T21:13:07.168Z,10.40
2023-01-12T21:15:34.223Z,10.40
2023-01-12T21:18:01.233Z,10.30
2023-01-12T21:20:28.320Z,10.30
2023-01-12T21:22:55.520Z,10.30
2023-01-12T21:25:26.068Z,10.20
2023-01-12T21:27:53.177Z,10.20
2023-01-12T21:30:20.569Z,10.20
2023-01-12T21:32:48.767Z,10.20
2023-01-12T21:35:15.944Z,10.10
2023-01-12T21:37:42.945Z,10.10
2023-01-12T21:40:10.573Z,10.10
2023-01-12T21:43:00.814Z,10.10
2023-01-12T21:45:28.035Z,10.10
2023-01-12T21:47:55.467Z,10.00
2023-01-12T21:50:23.186Z,10.00
2023-01-12T21:52:50.118Z,10.00
2023-01-12T21:55:19.438Z,10.00
2023-01-12T21:57:47.849Z,9.90
2023-01-12T22:00:15.749Z,9.90
2023-01-12T22:02:43.400Z,9.90
2023-01-12T22:05:11.171Z,9.90
2023-01-12T22:07:38.087Z,9.90
2023-01-12T22:10:20.997Z,9.90
2023-01-12T22:12:50.759Z,9.90
2023-01-12T22:15:18.299Z,9.80
2023-01-12T22:17:45.331Z,9.80
2023-01-12T22:20:13.213Z,9.70
2023-01-12T22:22:41.222Z,9.70
2023-01-12T22:25:09.869Z,9.70
2023-01-12T22:27:37.396Z,9.70
2023-01-12T22:30:06.153Z,9.70
2023-01-12T22:32:40.119Z,9.70
2023-01-12T22:35:10.452Z,9.60
2023-01-12T22:37:38.945Z,9.60
2023-01-12T22:40:08.088Z,9.50
2023-01-12T22:42:53.469Z,9.50
2023-01-12T22:45:21.707Z,9.50
2023-01-12T22:47:56.534Z,9.40
2023-01-12T22:50:24.406Z,9.40
2023-01-12T22:52:52.540Z,9.40
2023-01-12T22:55:23.365Z,9.40
2023-01-12T22:57:50.636Z,9.40
2023-01-12T23:00:19.025Z,9.30
2023-01-12T23:03:01.917Z,9.30
2023-01-12T23:05:37.630Z,9.30
2023-01-12T23:08:06.601Z,9.20
2023-01-12T23:10:33.951Z,9.20
2023-01-12T23:13:20.483Z,9.20
2023-01-12T23:15:58.076Z,9.10
2023-01-12T23:18:28.841Z,9.10
2023-01-12T23:21:24.788Z,9.00
2023-01-12T23:23:54.255Z,9.00
2023-01-12T23:26:30.941Z,9.00
2023-01-12T23:29:00.493Z,8.90
2023-01-12T23:31:30.090Z,8.90
2023-01-12T23:33:57.269Z,8.90
2023-01-12T23:36:26.441Z,8.80
2023-01-12T23:39:01.674Z,8.80
2023-01-12T23:41:30.160Z,8.80
2023-01-12T23:43:59.463Z,8.70
2023-01-12T23:46:28.148Z,8.70
2023-01-12T23:48:56.942Z,8.70
2023-01-12T23:51:25.633Z,8.70
2023-01-12T23:54:00.096Z,8.60
2023-01-12T23:56:29.389Z,8.60
2023-01-12T23:58:56.729Z,8.50
